createdAt,value
2016-11-21T00:00:02.684Z,0
2016-11-21T00:01:02.682Z,0
2016-11-21T00:02:02.694Z,0
2016-11-21T00:03:02.663Z,0
2016-11-21T00:04:02.651Z,0
2016-11-21T00:05:02.647Z,0
2016-11-21T00:06:02.636Z,0
2016-11-21T00:07:02.633Z,0
2016-11-21T00:08:02.916Z,0
2016-11-21T00:09:02.912Z,0
2016-11-21T00:10:02.595Z,0
2016-11-21T00:11:02.897Z,0
2016-11-21T00:12:02.585Z,0
2016-11-21T00:13:02.575Z,0
2016-11-21T00:14:02.567Z,0
2016-11-21T00:15:02.551Z,0
2016-11-21T00:16:02.546Z,0
2016-11-21T00:17:02.538Z,0
2016-11-21T00:18:02.533Z,0
2016-11-21T00:19:02.519Z,0
2016-11-21T00:20:02.511Z,0
2016-11-21T00:21:02.501Z,0
2016-11-21T00:22:02.493Z,0
2016-11-21T00:23:02.490Z,0
2016-11-21T00:24:02.470Z,0
2016-11-21T00:25:02.461Z,0
2016-11-21T00:26:02.456Z,0
2016-11-21T00:27:02.458Z,0
2016-11-21T00:28:02.438Z,0
2016-11-21T00:29:02.431Z,0
2016-11-21T00:30:02.428Z,0
2016-11-21T00:31:02.413Z,0
2016-11-21T00:32:02.719Z,0
2016-11-21T00:33:02.396Z,0
2016-11-21T00:34:02.387Z,0
2016-11-21T00:35:02.377Z,0
2016-11-21T00:36:02.370Z,0
2016-11-21T00:37:02.360Z,0
2016-11-21T00:38:02.350Z,0
2016-11-21T00:39:02.339Z,0
2016-11-21T00:40:02.336Z,0
2016-11-21T00:41:02.322Z,0
2016-11-21T00:42:02.320Z,0
2016-11-21T00:43:02.312Z,0
2016-11-21T00:44:02.299Z,0
2016-11-21T00:45:02.290Z,0
2016-11-21T00:46:02.291Z,0
2016-11-21T00:47:02.274Z,0
2016-11-21T00:48:02.265Z,0
2016-11-21T00:49:02.257Z,0
2016-11-21T00:50:02.243Z,0
2016-11-21T00:51:02.236Z,0
2016-11-21T00:52:02.225Z,0
2016-11-21T00:53:02.217Z,0
2016-11-21T00:54:02.823Z,0
2016-11-21T00:55:02.201Z,0
2016-11-21T00:56:02.192Z,0
2016-11-21T00:57:02.206Z,0
2016-11-21T00:58:02.203Z,0
2016-11-21T00:59:02.162Z,0
2016-11-21T01:00:02.155Z,0
2016-11-21T01:01:02.162Z,0
2016-11-21T01:02:02.133Z,0
2016-11-21T01:03:02.130Z,0
2016-11-21T01:04:02.118Z,0
2016-11-21T01:05:02.122Z,0
2016-11-21T01:06:02.100Z,0
2016-11-21T01:07:02.097Z,0
2016-11-21T01:08:02.078Z,0
2016-11-21T01:09:02.089Z,0
2016-11-21T01:10:02.077Z,0
2016-11-21T01:11:02.061Z,0
2016-11-21T01:12:02.052Z,0
2016-11-21T01:13:02.039Z,0
2016-11-21T01:14:02.030Z,0
2016-11-21T01:15:02.021Z,0
2016-11-21T01:16:02.017Z,0
2016-11-21T01:17:02.012Z,0
2016-11-21T01:18:01.997Z,0
2016-11-21T01:19:01.990Z,0
2016-11-21T01:20:01.977Z,0
2016-11-21T01:21:01.971Z,0
2016-11-21T01:22:01.962Z,0
2016-11-21T01:23:02.262Z,0
2016-11-21T01:24:01.946Z,0
2016-11-21T01:25:01.933Z,0
2016-11-21T01:26:01.921Z,0
2016-11-21T01:27:01.915Z,0
2016-11-21T01:28:01.909Z,0
2016-11-21T01:29:01.897Z,0
2016-11-21T01:30:01.898Z,0
2016-11-21T01:31:01.885Z,0
2016-11-21T01:32:01.871Z,0
2016-11-21T01:33:01.869Z,0
2016-11-21T01:34:01.857Z,0
2016-11-21T01:35:01.850Z,0
2016-11-21T01:36:01.841Z,0
2016-11-21T01:37:01.824Z,0
2016-11-21T01:38:01.821Z,0
2016-11-21T01:39:01.810Z,0
2016-11-21T01:40:01.801Z,0
2016-11-21T01:41:01.793Z,0
2016-11-21T01:42:01.789Z,0
2016-11-21T01:43:01.772Z,0
2016-11-21T01:44:01.772Z,0
2016-11-21T01:45:01.753Z,0
2016-11-21T01:46:01.749Z,0
2016-11-21T01:47:01.743Z,0
2016-11-21T01:48:01.730Z,0
2016-11-21T01:49:01.724Z,0
2016-11-21T01:50:01.713Z,0
2016-11-21T01:51:01.702Z,0
2016-11-21T01:52:01.701Z,0
2016-11-21T01:53:01.685Z,0
2016-11-21T01:54:01.679Z,0
2016-11-21T01:55:01.662Z,0
2016-11-21T01:56:01.657Z,0
2016-11-21T01:57:01.649Z,0
2016-11-21T01:58:01.642Z,0
2016-11-21T01:59:01.636Z,0
2016-11-21T02:00:01.627Z,0
2016-11-21T02:01:01.613Z,0
2016-11-21T02:02:01.607Z,0
2016-11-21T02:03:01.603Z,0
2016-11-21T02:04:01.589Z,0
2016-11-21T02:05:01.576Z,0
2016-11-21T02:06:01.573Z,0
2016-11-21T02:07:01.562Z,0
2016-11-21T02:08:01.573Z,0
2016-11-21T02:09:01.542Z,0
2016-11-21T02:10:01.529Z,0
2016-11-21T02:11:01.526Z,0
2016-11-21T02:12:01.820Z,0
2016-11-21T02:13:01.507Z,0
2016-11-21T02:14:01.492Z,0
2016-11-21T02:15:01.483Z,0
2016-11-21T02:16:01.474Z,0
2016-11-21T02:17:01.470Z,0
2016-11-21T02:18:01.500Z,0
2016-11-21T02:19:01.453Z,0
2016-11-21T02:20:01.442Z,0
2016-11-21T02:21:01.436Z,0
2016-11-21T02:22:01.423Z,0
2016-11-21T02:23:01.413Z,0
2016-11-21T02:24:01.398Z,0
2016-11-21T02:25:01.399Z,0
2016-11-21T02:26:01.382Z,0
2016-11-21T02:27:01.382Z,0
2016-11-21T02:28:01.368Z,0
2016-11-21T02:29:01.366Z,0
2016-11-21T02:30:01.660Z,0
2016-11-21T02:31:01.337Z,0
2016-11-21T02:32:01.331Z,0
2016-11-21T02:33:01.325Z,0
2016-11-21T02:34:01.311Z,0
2016-11-21T02:35:01.308Z,0
2016-11-21T02:36:01.296Z,0
2016-11-21T02:37:01.289Z,0
2016-11-21T02:38:01.273Z,0
2016-11-21T02:39:01.271Z,0
2016-11-21T02:40:01.264Z,0
2016-11-21T02:41:01.242Z,0
2016-11-21T02:42:01.270Z,0
2016-11-21T02:43:01.232Z,0
2016-11-21T02:44:01.230Z,0
2016-11-21T02:45:01.208Z,0
2016-11-21T02:46:01.199Z,0
2016-11-21T02:47:01.199Z,0
2016-11-21T02:48:01.195Z,0
2016-11-21T02:49:01.169Z,0
2016-11-21T02:50:01.162Z,0
2016-11-21T02:51:01.167Z,0
2016-11-21T02:52:01.154Z,0
2016-11-21T02:53:01.144Z,0
2016-11-21T02:54:01.137Z,0
2016-11-21T02:55:01.122Z,0
2016-11-21T02:56:01.113Z,0
2016-11-21T02:57:01.112Z,0
2016-11-21T02:58:01.091Z,0
2016-11-21T02:59:01.081Z,0
2016-11-21T03:00:01.075Z,0
2016-11-21T03:01:01.068Z,0
2016-11-21T03:02:01.058Z,0
2016-11-21T03:03:01.050Z,0
2016-11-21T03:04:01.342Z,0
2016-11-21T03:05:01.025Z,0
2016-11-21T03:06:01.026Z,0
2016-11-21T03:07:01.018Z,0
2016-11-21T03:08:00.998Z,0
2016-11-21T03:09:00.993Z,0
2016-11-21T03:10:00.989Z,0
2016-11-21T03:11:00.975Z,0
2016-11-21T03:12:00.965Z,0
2016-11-21T03:13:00.959Z,0
2016-11-21T03:14:00.944Z,0
2016-11-21T03:15:00.940Z,0
2016-11-21T03:16:00.926Z,0
2016-11-21T03:17:00.917Z,0
2016-11-21T03:18:00.906Z,0
2016-11-21T03:19:00.899Z,0
2016-11-21T03:20:00.885Z,0
2016-11-21T03:21:00.877Z,0
2016-11-21T03:22:00.867Z,0
2016-11-21T03:23:00.862Z,0
2016-11-21T03:24:00.860Z,0
2016-11-21T03:25:00.839Z,0
2016-11-21T03:26:00.831Z,0
2016-11-21T03:27:00.817Z,0
2016-11-21T03:28:00.809Z,0
2016-11-21T03:29:01.108Z,0
2016-11-21T03:30:00.796Z,0
2016-11-21T03:31:00.811Z,0
2016-11-21T03:32:00.775Z,0
2016-11-21T03:33:00.765Z,0
2016-11-21T03:34:00.756Z,0
2016-11-21T03:35:00.748Z,0
2016-11-21T03:36:00.733Z,0
2016-11-21T03:37:00.725Z,0
2016-11-21T03:38:00.741Z,0
2016-11-21T03:39:00.703Z,0
2016-11-21T03:40:00.703Z,0
2016-11-21T03:41:00.682Z,0
2016-11-21T03:42:00.676Z,0
2016-11-21T03:43:00.666Z,0
2016-11-21T03:44:00.688Z,0
2016-11-21T03:45:00.644Z,0
2016-11-21T03:46:00.678Z,0
2016-11-21T03:47:00.632Z,0
2016-11-21T03:48:00.622Z,0
2016-11-21T03:49:00.606Z,0
2016-11-21T03:50:00.602Z,0
2016-11-21T03:51:00.592Z,0
2016-11-21T03:52:00.585Z,0
2016-11-21T03:53:00.574Z,0
2016-11-21T03:54:00.564Z,0
2016-11-21T03:55:00.558Z,0
2016-11-21T03:56:00.571Z,0
2016-11-21T03:57:00.533Z,0
2016-11-21T03:58:00.521Z,0
2016-11-21T03:59:00.507Z,0
2016-11-21T04:00:00.504Z,0
2016-11-21T04:01:00.491Z,0
2016-11-21T04:02:00.478Z,0
2016-11-21T04:03:00.475Z,0
2016-11-21T04:04:00.495Z,0
2016-11-21T04:05:00.451Z,0
2016-11-21T04:06:00.447Z,0
2016-11-21T04:07:00.434Z,0
2016-11-21T04:08:00.425Z,0
2016-11-21T04:09:00.415Z,0
2016-11-21T04:10:00.401Z,0
2016-11-21T04:11:00.393Z,0
2016-11-21T04:12:00.384Z,0
2016-11-21T04:13:00.372Z,0
2016-11-21T04:14:00.361Z,0
2016-11-21T04:15:00.357Z,0
2016-11-21T04:16:00.342Z,0
2016-11-21T04:17:00.336Z,0
2016-11-21T04:18:00.328Z,0
2016-11-21T04:19:00.310Z,0
2016-11-21T04:20:00.305Z,0
2016-11-21T04:21:00.598Z,0
2016-11-21T04:22:00.285Z,0
2016-11-21T04:23:00.275Z,0
2016-11-21T04:24:00.263Z,0
2016-11-21T04:25:00.252Z,0
2016-11-21T04:26:00.244Z,0
2016-11-21T04:27:00.230Z,0
2016-11-21T04:28:00.249Z,0
2016-11-21T04:29:00.239Z,0
2016-11-21T04:30:00.199Z,0
2016-11-21T04:31:00.197Z,0
2016-11-21T04:32:00.192Z,0
2016-11-21T04:33:00.179Z,0
2016-11-21T04:34:00.165Z,0
2016-11-21T04:35:00.182Z,0
2016-11-21T04:36:00.143Z,0
2016-11-21T04:37:00.137Z,0
2016-11-21T04:38:00.125Z,0
2016-11-21T04:39:00.114Z,0
2016-11-21T04:40:00.102Z,0
2016-11-21T04:41:00.094Z,0
2016-11-21T04:42:00.091Z,0
2016-11-21T04:43:00.372Z,0
2016-11-21T04:44:00.061Z,0
2016-11-21T04:45:00.049Z,0
2016-11-21T04:46:00.039Z,0
2016-11-21T04:47:00.033Z,0
2016-11-21T04:48:00.049Z,0
2016-11-21T04:49:00.013Z,0
2016-11-21T04:50:00.003Z,0
2016-11-21T04:51:00.001Z,0
2016-11-21T04:51:59.977Z,0
2016-11-21T04:52:59.973Z,0
2016-11-21T04:53:59.954Z,0
2016-11-21T04:54:59.948Z,0
2016-11-21T04:55:59.941Z,0
2016-11-21T04:56:59.923Z,0
2016-11-21T04:57:59.916Z,0
2016-11-21T04:58:59.903Z,0
2016-11-21T04:59:59.896Z,0
2016-11-21T05:00:59.886Z,0
2016-11-21T05:01:59.884Z,0
2016-11-21T05:02:59.859Z,0
2016-11-21T05:03:59.859Z,0
2016-11-21T05:04:59.840Z,0
2016-11-21T05:05:59.839Z,0
2016-11-21T05:06:59.827Z,0
2016-11-21T05:07:59.821Z,0
2016-11-21T05:08:59.805Z,0
2016-11-21T05:09:59.797Z,0
2016-11-21T05:10:59.784Z,0
2016-11-21T05:11:59.776Z,0
2016-11-21T05:12:59.758Z,0
2016-11-21T05:13:59.751Z,0
2016-11-21T05:14:59.741Z,0
2016-11-21T05:15:59.736Z,0
2016-11-21T05:16:59.719Z,0
2016-11-21T05:17:59.720Z,0
2016-11-21T05:18:59.699Z,0
2016-11-21T05:19:59.696Z,0
2016-11-21T05:20:59.685Z,0
2016-11-21T05:21:59.672Z,0
2016-11-21T05:22:59.662Z,0
2016-11-21T05:23:59.662Z,0
2016-11-21T05:24:59.639Z,0
2016-11-21T05:25:59.642Z,0
2016-11-21T05:26:59.617Z,0
2016-11-21T05:27:59.609Z,0
2016-11-21T05:28:59.596Z,0
2016-11-21T05:29:59.586Z,0
2016-11-21T05:30:59.575Z,0
2016-11-21T05:31:59.566Z,0
2016-11-21T05:32:59.558Z,0
2016-11-21T05:33:59.543Z,0
2016-11-21T05:34:59.540Z,0
2016-11-21T05:35:59.524Z,0
2016-11-21T05:36:59.511Z,0
2016-11-21T05:37:59.503Z,0
2016-11-21T05:38:59.533Z,0
2016-11-21T05:39:59.485Z,0
2016-11-21T05:40:59.476Z,0
2016-11-21T05:41:59.459Z,0
2016-11-21T05:42:59.454Z,0
2016-11-21T05:43:59.473Z,0
2016-11-21T05:44:59.428Z,0
2016-11-21T05:45:59.422Z,0
2016-11-21T05:46:59.414Z,0
2016-11-21T05:47:59.415Z,0
2016-11-21T05:48:59.388Z,0
2016-11-21T05:49:59.385Z,0
2016-11-21T05:50:59.373Z,0
2016-11-21T05:51:59.369Z,0
2016-11-21T05:52:59.351Z,0
2016-11-21T05:53:59.337Z,0
2016-11-21T05:54:59.640Z,0
2016-11-21T05:55:59.317Z,0
2016-11-21T05:56:59.304Z,0
2016-11-21T05:57:59.296Z,0
2016-11-21T05:58:59.280Z,4
2016-11-21T05:59:59.275Z,4
2016-11-21T06:00:59.262Z,4
2016-11-21T06:01:59.250Z,0
2016-11-21T06:02:59.243Z,4
2016-11-21T06:03:59.233Z,4
2016-11-21T06:04:59.220Z,4
2016-11-21T06:05:59.218Z,8
2016-11-21T06:06:59.499Z,8
2016-11-21T06:07:59.194Z,8
2016-11-21T06:08:59.179Z,12
2016-11-21T06:09:59.172Z,12
2016-11-21T06:10:59.161Z,12
2016-11-21T06:11:59.149Z,16
2016-11-21T06:12:59.138Z,20
2016-11-21T06:13:59.128Z,20
2016-11-21T06:14:59.115Z,24
2016-11-21T06:15:59.100Z,32
2016-11-21T06:16:59.097Z,36
2016-11-21T06:17:59.089Z,40
2016-11-21T06:18:59.383Z,48
2016-11-21T06:19:59.069Z,52
2016-11-21T06:20:59.052Z,60
2016-11-21T06:21:59.046Z,68
2016-11-21T06:22:59.035Z,76
2016-11-21T06:23:59.329Z,88
2016-11-21T06:24:59.012Z,96
2016-11-21T06:25:59.004Z,108
2016-11-21T06:26:58.984Z,124
2016-11-21T06:27:58.980Z,136
2016-11-21T06:28:58.966Z,156
2016-11-21T06:29:58.953Z,180
2016-11-21T06:30:58.947Z,208
2016-11-21T06:31:58.940Z,240
2016-11-21T06:32:58.943Z,276
2016-11-21T06:33:58.917Z,308
2016-11-21T06:34:58.904Z,340
2016-11-21T06:35:58.895Z,364
2016-11-21T06:36:58.879Z,396
2016-11-21T06:37:58.874Z,432
2016-11-21T06:38:59.178Z,464
2016-11-21T06:39:58.848Z,504
2016-11-21T06:40:59.148Z,544
2016-11-21T06:41:58.830Z,584
2016-11-21T06:42:58.822Z,624
2016-11-21T06:43:58.804Z,664
2016-11-21T06:44:58.795Z,708
2016-11-21T06:45:58.790Z,760
2016-11-21T06:46:58.780Z,820
2016-11-21T06:47:58.759Z,880
2016-11-21T06:48:58.756Z,932
2016-11-21T06:49:58.757Z,980
2016-11-21T06:50:58.730Z,1032
2016-11-21T06:51:58.722Z,1084
2016-11-21T06:52:58.713Z,1152
2016-11-21T06:53:58.708Z,1220
2016-11-21T06:54:58.692Z,1304
2016-11-21T06:55:58.695Z,1400
2016-11-21T06:56:58.673Z,1496
2016-11-21T06:57:58.657Z,1604
2016-11-21T06:58:58.652Z,1712
2016-11-21T06:59:58.639Z,1824
2016-11-21T07:00:58.630Z,1944
2016-11-21T07:01:58.620Z,2068
2016-11-21T07:02:58.612Z,2208
2016-11-21T07:03:58.591Z,2288
2016-11-21T07:04:58.580Z,2328
2016-11-21T07:05:58.879Z,2372
2016-11-21T07:06:58.559Z,2436
2016-11-21T07:07:58.548Z,2512
2016-11-21T07:08:58.542Z,2596
2016-11-21T07:09:58.560Z,2660
2016-11-21T07:10:58.526Z,2696
2016-11-21T07:11:58.517Z,2716
2016-11-21T07:12:58.526Z,2740
2016-11-21T07:13:58.492Z,2768
2016-11-21T07:14:58.485Z,2796
2016-11-21T07:15:58.482Z,2872
2016-11-21T07:16:58.468Z,2980
2016-11-21T07:17:58.461Z,3116
2016-11-21T07:18:58.443Z,3276
2016-11-21T07:19:58.747Z,3432
2016-11-21T07:20:58.435Z,3604
2016-11-21T07:21:58.407Z,3784
2016-11-21T07:22:58.404Z,3952
2016-11-21T07:23:58.416Z,4108
2016-11-21T07:24:58.393Z,4268
2016-11-21T07:25:58.379Z,4400
2016-11-21T07:26:58.364Z,4488
2016-11-21T07:27:58.356Z,4560
2016-11-21T07:28:58.645Z,4600
2016-11-21T07:29:58.336Z,4608
2016-11-21T07:30:58.336Z,4600
2016-11-21T07:31:58.319Z,4576
2016-11-21T07:32:58.308Z,4516
2016-11-21T07:33:58.298Z,4456
2016-11-21T07:34:58.280Z,4460
2016-11-21T07:35:58.283Z,4436
2016-11-21T07:36:58.275Z,4380
2016-11-21T07:37:58.253Z,4280
2016-11-21T07:38:58.862Z,4200
2016-11-21T07:39:58.243Z,4080
2016-11-21T07:40:58.239Z,4008
2016-11-21T07:41:58.221Z,3968
2016-11-21T07:42:58.520Z,3936
2016-11-21T07:43:58.196Z,4012
2016-11-21T07:44:58.196Z,4072
2016-11-21T07:45:58.177Z,4112
2016-11-21T07:46:58.178Z,4200
2016-11-21T07:47:58.170Z,4228
2016-11-21T07:48:58.161Z,4256
2016-11-21T07:49:58.155Z,4296
2016-11-21T07:50:58.141Z,4416
2016-11-21T07:51:58.133Z,4504
2016-11-21T07:52:58.119Z,4588
2016-11-21T07:53:58.117Z,4748
2016-11-21T07:54:58.105Z,4916
2016-11-21T07:55:58.403Z,5156
2016-11-21T07:56:58.087Z,5392
2016-11-21T07:57:58.078Z,5576
2016-11-21T07:58:58.066Z,5672
2016-11-21T07:59:58.065Z,5776
2016-11-21T08:00:58.057Z,5868
2016-11-21T08:01:58.039Z,5868
2016-11-21T08:02:58.040Z,5936
2016-11-21T08:03:58.029Z,6084
2016-11-21T08:04:58.020Z,6176
2016-11-21T08:05:58.017Z,6164
2016-11-21T08:06:58.005Z,6184
2016-11-21T08:08:23.656Z,6116
2016-11-21T08:08:57.975Z,6092
2016-11-21T08:09:58.271Z,5912
2016-11-21T08:10:57.959Z,5780
2016-11-21T08:11:57.947Z,5748
2016-11-21T08:12:57.939Z,5740
2016-11-21T08:13:57.934Z,5744
2016-11-21T08:14:57.918Z,5772
2016-11-21T08:15:57.910Z,5804
2016-11-21T08:16:57.892Z,5796
2016-11-21T08:17:57.909Z,5728
2016-11-21T08:18:58.183Z,5636
2016-11-21T08:19:57.868Z,5480
2016-11-21T08:20:57.861Z,5352
2016-11-21T08:21:57.854Z,5244
2016-11-21T08:22:57.843Z,5176
2016-11-21T08:23:57.865Z,5132
2016-11-21T08:24:57.830Z,5132
2016-11-21T08:25:57.820Z,5108
2016-11-21T08:26:57.818Z,5028
2016-11-21T08:27:57.812Z,4928
2016-11-21T08:28:57.802Z,4816
2016-11-21T08:29:57.803Z,4728
2016-11-21T08:30:57.785Z,4712
2016-11-21T08:31:57.783Z,4784
2016-11-21T08:32:57.776Z,4924
2016-11-21T08:33:57.768Z,5152
2016-11-21T08:34:57.747Z,5356
2016-11-21T08:35:57.755Z,5536
2016-11-21T08:36:58.044Z,5684
2016-11-21T08:37:57.744Z,5824
2016-11-21T08:38:57.734Z,5964
2016-11-21T08:39:57.741Z,6148
2016-11-21T08:40:57.742Z,6136
2016-11-21T08:41:57.700Z,6196
2016-11-21T08:42:57.731Z,6316
2016-11-21T08:43:57.718Z,6364
2016-11-21T08:44:57.683Z,6388
2016-11-21T08:45:57.681Z,6416
2016-11-21T08:46:57.674Z,6404
2016-11-21T08:47:57.665Z,6268
2016-11-21T08:48:57.660Z,6184
2016-11-21T08:49:57.649Z,6188
2016-11-21T08:50:57.647Z,6280
2016-11-21T08:51:57.623Z,6404
2016-11-21T08:52:57.644Z,6588
2016-11-21T08:53:57.619Z,6776
2016-11-21T08:54:57.616Z,6948
2016-11-21T08:55:57.610Z,7104
2016-11-21T08:56:57.705Z,7000
2016-11-21T08:57:57.588Z,6900
2016-11-21T08:58:57.592Z,6844
2016-11-21T08:59:57.585Z,6672
2016-11-21T09:00:57.782Z,6448
2016-11-21T09:01:57.569Z,6328
2016-11-21T09:02:57.566Z,6276
2016-11-21T09:03:57.552Z,6312
2016-11-21T09:04:57.556Z,6404
2016-11-21T09:05:57.541Z,6376
2016-11-21T09:06:57.536Z,6316
2016-11-21T09:07:57.831Z,6436
2016-11-21T09:08:57.529Z,6748
2016-11-21T09:09:57.520Z,7108
2016-11-21T09:10:57.809Z,7408
2016-11-21T09:11:57.496Z,7744
2016-11-21T09:12:57.505Z,8048
2016-11-21T09:13:57.488Z,8244
2016-11-21T09:14:57.495Z,8192
2016-11-21T09:15:57.476Z,7968
2016-11-21T09:16:57.467Z,7748
2016-11-21T09:17:57.455Z,7588
2016-11-21T09:18:57.452Z,7468
2016-11-21T09:19:57.446Z,7476
2016-11-21T09:20:57.441Z,7608
2016-11-21T09:21:57.438Z,7688
2016-11-21T09:22:57.420Z,7788
2016-11-21T09:23:57.420Z,7788
2016-11-21T09:24:57.428Z,7764
2016-11-21T09:25:57.413Z,7644
2016-11-21T09:26:57.409Z,7464
2016-11-21T09:27:57.405Z,7404
2016-11-21T09:28:57.388Z,7404
2016-11-21T09:29:57.386Z,7428
2016-11-21T09:30:57.380Z,7584
2016-11-21T09:31:57.373Z,7856
2016-11-21T09:32:57.369Z,8068
2016-11-21T09:33:57.358Z,8356
2016-11-21T09:34:57.351Z,8664
2016-11-21T09:35:57.350Z,8624
2016-11-21T09:36:57.342Z,8484
2016-11-21T09:37:57.336Z,8316
2016-11-21T09:38:57.325Z,8240
2016-11-21T09:39:57.318Z,8200
2016-11-21T09:40:57.315Z,8160
2016-11-21T09:41:57.312Z,8064
2016-11-21T09:42:57.305Z,8000
2016-11-21T09:43:57.295Z,8012
2016-11-21T09:44:57.290Z,8076
2016-11-21T09:45:57.281Z,8200
2016-11-21T09:46:57.304Z,8332
2016-11-21T09:47:57.274Z,8464
2016-11-21T09:48:57.264Z,8604
2016-11-21T09:49:57.266Z,8740
2016-11-21T09:50:57.263Z,8860
2016-11-21T09:51:57.252Z,8924
2016-11-21T09:52:57.240Z,8908
2016-11-21T09:53:57.238Z,8840
2016-11-21T09:54:57.229Z,8732
2016-11-21T09:55:57.222Z,8608
2016-11-21T09:56:57.221Z,8504
2016-11-21T09:57:57.217Z,8420
2016-11-21T09:58:57.524Z,8372
2016-11-21T09:59:57.202Z,8368
2016-11-21T10:00:57.194Z,8424
2016-11-21T10:01:57.190Z,8480
2016-11-21T10:02:57.188Z,8548
2016-11-21T10:03:57.189Z,8604
2016-11-21T10:04:57.176Z,8728
2016-11-21T10:05:57.176Z,8772
2016-11-21T10:06:57.167Z,8844
2016-11-21T10:07:57.158Z,8884
2016-11-21T10:08:57.160Z,8808
2016-11-21T10:09:57.150Z,8652
2016-11-21T10:10:57.146Z,8384
2016-11-21T10:11:57.133Z,8036
2016-11-21T10:12:57.142Z,7700
2016-11-21T10:13:57.422Z,7400
2016-11-21T10:14:57.134Z,7028
2016-11-21T10:15:57.122Z,6712
2016-11-21T10:16:57.110Z,6508
2016-11-21T10:17:57.106Z,6316
2016-11-21T10:18:57.105Z,6176
2016-11-21T10:19:57.099Z,6060
2016-11-21T10:20:57.087Z,6008
2016-11-21T10:21:57.084Z,5948
2016-11-21T10:22:57.083Z,5892
2016-11-21T10:23:57.072Z,5840
2016-11-21T10:24:57.069Z,5836
2016-11-21T10:25:57.064Z,5888
2016-11-21T10:26:57.353Z,5916
2016-11-21T10:27:57.049Z,5932
2016-11-21T10:28:57.049Z,5988
2016-11-21T10:30:16.259Z,5932
2016-11-21T10:30:57.053Z,5864
2016-11-21T10:31:57.046Z,5740
2016-11-21T10:32:57.034Z,5660
2016-11-21T10:33:57.031Z,5592
2016-11-21T10:34:57.045Z,5500
2016-11-21T10:35:57.340Z,5424
2016-11-21T10:36:57.032Z,5324
2016-11-21T10:37:57.055Z,5220
2016-11-21T10:38:57.020Z,5180
2016-11-21T10:39:57.015Z,5156
2016-11-21T10:40:57.016Z,5108
2016-11-21T10:41:57.005Z,5076
2016-11-21T10:42:56.996Z,5044
2016-11-21T10:43:56.994Z,5008
2016-11-21T10:44:56.982Z,4968
2016-11-21T10:45:56.990Z,4944
2016-11-21T10:46:56.977Z,4936
2016-11-21T10:47:56.971Z,4940
2016-11-21T10:48:56.964Z,4904
2016-11-21T10:49:56.957Z,4800
2016-11-21T10:50:57.258Z,4764
2016-11-21T10:51:56.951Z,4656
2016-11-21T10:52:56.950Z,4580
2016-11-21T10:53:56.932Z,4492
2016-11-21T10:54:56.936Z,4500
2016-11-21T10:55:56.921Z,4672
2016-11-21T10:56:56.926Z,4952
2016-11-21T10:57:56.909Z,5252
2016-11-21T10:58:56.904Z,5492
2016-11-21T10:59:56.902Z,5620
2016-11-21T11:00:56.896Z,5620
2016-11-21T11:01:56.889Z,5504
2016-11-21T11:02:56.885Z,5396
2016-11-21T11:03:56.879Z,5320
2016-11-21T11:04:56.870Z,5324
2016-11-21T11:05:56.874Z,5424
2016-11-21T11:06:56.862Z,5416
2016-11-21T11:07:57.189Z,5388
2016-11-21T11:08:56.853Z,5324
2016-11-21T11:09:56.847Z,5260
2016-11-21T11:10:56.840Z,5176
2016-11-21T11:11:56.832Z,5148
2016-11-21T11:12:56.830Z,5200
2016-11-21T11:13:56.815Z,5304
2016-11-21T11:14:56.827Z,5444
2016-11-21T11:15:56.811Z,5464
2016-11-21T11:16:56.803Z,5464
2016-11-21T11:17:56.792Z,5464
2016-11-21T11:18:56.790Z,5472
2016-11-21T11:19:56.779Z,5500
2016-11-21T11:20:56.776Z,5584
2016-11-21T11:21:56.771Z,5712
2016-11-21T11:22:56.766Z,5808
2016-11-21T11:23:56.757Z,5860
2016-11-21T11:24:56.765Z,5860
2016-11-21T11:25:56.755Z,5828
2016-11-21T11:26:56.741Z,5716
2016-11-21T11:27:56.739Z,5536
2016-11-21T11:28:56.733Z,5380
2016-11-21T11:29:56.727Z,5256
2016-11-21T11:30:56.746Z,5204
2016-11-21T11:31:56.714Z,5144
2016-11-21T11:32:56.706Z,5096
2016-11-21T11:33:56.710Z,5024
2016-11-21T11:34:56.697Z,4916
2016-11-21T11:35:56.698Z,4796
2016-11-21T11:37:41.508Z,4744
2016-11-21T11:37:56.666Z,4724
2016-11-21T11:38:56.664Z,4748
2016-11-21T11:39:56.651Z,4712
2016-11-21T11:40:56.667Z,4640
2016-11-21T11:41:56.664Z,4504
2016-11-21T11:42:56.662Z,4436
2016-11-21T11:43:56.659Z,4496
2016-11-21T11:44:56.662Z,4492
2016-11-21T11:45:56.640Z,4540
2016-11-21T11:46:56.953Z,4600
2016-11-21T11:47:56.642Z,4608
2016-11-21T11:48:56.623Z,4488
2016-11-21T11:49:56.926Z,4444
2016-11-21T11:50:56.653Z,4352
2016-11-21T11:51:56.919Z,4372
2016-11-21T11:52:56.609Z,4340
2016-11-21T11:53:56.604Z,4292
2016-11-21T11:54:56.598Z,4200
2016-11-21T11:55:56.584Z,4108
2016-11-21T11:56:56.580Z,3960
2016-11-21T11:57:56.604Z,3836
2016-11-21T11:58:56.571Z,3736
2016-11-21T11:59:56.568Z,3668
2016-11-21T12:00:56.556Z,3596
2016-11-21T12:01:56.552Z,3520
2016-11-21T12:02:56.552Z,3460
2016-11-21T12:03:56.549Z,3448
2016-11-21T12:04:56.535Z,3456
2016-11-21T12:05:56.849Z,3480
2016-11-21T12:06:56.829Z,3548
2016-11-21T12:07:56.528Z,3628
2016-11-21T12:08:56.516Z,3700
2016-11-21T12:09:56.516Z,3792
2016-11-21T12:10:56.496Z,3864
2016-11-21T12:11:56.500Z,3964
2016-11-21T12:12:56.796Z,4016
2016-11-21T12:13:56.518Z,3988
2016-11-21T12:14:56.476Z,3980
2016-11-21T12:15:56.481Z,4140
2016-11-21T12:16:56.473Z,4508
2016-11-21T12:17:56.460Z,4948
2016-11-21T12:18:56.456Z,5240
2016-11-21T12:19:56.450Z,5276
2016-11-21T12:20:57.061Z,5252
2016-11-21T12:21:56.440Z,5268
2016-11-21T12:22:56.434Z,5452
2016-11-21T12:23:56.431Z,5664
2016-11-21T12:24:56.424Z,5716
2016-11-21T12:25:56.411Z,5728
2016-11-21T12:26:56.403Z,5696
2016-11-21T12:27:56.405Z,5688
2016-11-21T12:28:56.402Z,5836
2016-11-21T12:29:56.704Z,6072
2016-11-21T12:30:57.012Z,6292
2016-11-21T12:31:56.376Z,6440
2016-11-21T12:32:56.407Z,6164
2016-11-21T12:33:56.369Z,5752
2016-11-21T12:34:56.370Z,5348
2016-11-21T12:35:56.353Z,4996
2016-11-21T12:36:56.378Z,4696
2016-11-21T12:37:56.345Z,4504
2016-11-21T12:38:56.363Z,4388
2016-11-21T12:39:56.338Z,4304
2016-11-21T12:40:56.327Z,4232
2016-11-21T12:41:56.359Z,4212
2016-11-21T12:42:56.320Z,4244
2016-11-21T12:43:56.305Z,4308
2016-11-21T12:44:56.313Z,4404
2016-11-21T12:45:56.302Z,4516
2016-11-21T12:46:56.606Z,4596
2016-11-21T12:47:56.601Z,4628
2016-11-21T12:48:56.282Z,4664
2016-11-21T12:49:56.309Z,4716
2016-11-21T12:50:56.272Z,4752
2016-11-21T12:51:56.271Z,4764
2016-11-21T12:52:56.261Z,4812
2016-11-21T12:53:56.264Z,4848
2016-11-21T12:54:56.247Z,4920
2016-11-21T12:55:56.247Z,5160
2016-11-21T12:56:56.245Z,5380
2016-11-21T12:57:56.234Z,5460
2016-11-21T12:58:56.230Z,5404
2016-11-21T12:59:56.231Z,5344
2016-11-21T13:00:56.209Z,5232
2016-11-21T13:01:56.234Z,5108
2016-11-21T13:02:56.199Z,5028
2016-11-21T13:03:56.206Z,4964
2016-11-21T13:04:56.195Z,4896
2016-11-21T13:05:56.190Z,4840
2016-11-21T13:06:56.186Z,4772
2016-11-21T13:07:56.184Z,4680
2016-11-21T13:08:56.169Z,4592
2016-11-21T13:09:56.184Z,4496
2016-11-21T13:10:56.154Z,4404
2016-11-21T13:11:56.152Z,4328
2016-11-21T13:12:56.153Z,4260
2016-11-21T13:13:56.141Z,4180
2016-11-21T13:14:56.437Z,4064
2016-11-21T13:15:56.133Z,3936
2016-11-21T13:16:56.113Z,3800
2016-11-21T13:17:56.122Z,3676
2016-11-21T13:18:56.116Z,3556
2016-11-21T13:19:56.108Z,3448
2016-11-21T13:20:56.105Z,3360
2016-11-21T13:21:56.101Z,3276
2016-11-21T13:22:56.098Z,3200
2016-11-21T13:23:56.083Z,3120
2016-11-21T13:24:56.086Z,3048
2016-11-21T13:25:56.066Z,2980
2016-11-21T13:26:56.057Z,2908
2016-11-21T13:27:56.054Z,2852
2016-11-21T13:28:56.050Z,2824
2016-11-21T13:29:56.052Z,2804
2016-11-21T13:30:56.047Z,2824
2016-11-21T13:31:56.345Z,2868
2016-11-21T13:32:56.028Z,2904
2016-11-21T13:33:56.025Z,2932
2016-11-21T13:34:56.016Z,2936
2016-11-21T13:35:56.014Z,2932
2016-11-21T13:36:56.005Z,2908
2016-11-21T13:37:56.005Z,2872
2016-11-21T13:38:56.289Z,2824
2016-11-21T13:39:55.985Z,2788
2016-11-21T13:40:56.284Z,2744
2016-11-21T13:41:55.967Z,2704
2016-11-21T13:42:55.959Z,2664
2016-11-21T13:43:55.985Z,2616
2016-11-21T13:44:55.959Z,2572
2016-11-21T13:45:55.944Z,2536
2016-11-21T13:46:55.952Z,2512
2016-11-21T13:47:55.933Z,2508
2016-11-21T13:48:55.925Z,2508
2016-11-21T13:49:55.932Z,2512
2016-11-21T13:50:55.925Z,2512
2016-11-21T13:51:55.906Z,2508
2016-11-21T13:52:56.213Z,2516
2016-11-21T13:53:55.896Z,2536
2016-11-21T13:54:55.892Z,2540
2016-11-21T13:55:56.185Z,2536
2016-11-21T13:56:56.218Z,2528